Time;durP1;ratioP1;P1;durP2;ratioP2;P2;SDS_P1;SDS_P2;PMS_P1;PMS_P2;Temp;Humidity;BMP_temperature;BMP_pressure;BME280_temperature;BME280_humidity;BME280_pressure;Samples;Min_cycle;Max_cycle;Signal;HPM_P1;HPM_P2
2021/05/02 00:01:55;;;;;;;7.50;6.50;;;6.50;93.10;;;;;;5073803;28;20417;-64
2021/05/02 00:04:20;;;;;;;8.20;7.00;;;6.60;93.10;;;;;;5073774;28;20958;-64
2021/05/02 00:06:46;;;;;;;7.40;6.70;;;6.60;93.40;;;;;;5073888;28;20167;-64
2021/05/02 00:09:11;;;;;;;8.73;8.03;;;6.60;93.40;;;;;;5073374;28;20168;-65
2021/05/02 00:11:37;;;;;;;7.23;6.53;;;6.60;93.30;;;;;;5073546;28;20237;-65
2021/05/02 00:14:03;;;;;;;8.50;7.00;;;6.60;93.70;;;;;;5073935;28;20199;-65
2021/05/02 00:16:29;;;;;;;9.07;8.20;;;6.60;93.70;;;;;;5073654;28;20251;-65
2021/05/02 00:18:55;;;;;;;11.40;8.47;;;6.60;93.80;;;;;;5073227;28;20405;-64
2021/05/02 00:21:23;;;;;;;9.57;8.57;;;6.60;93.80;;;;;;5073404;28;20432;-64
2021/05/02 00:23:49;;;;;;;8.60;7.80;;;6.60;93.90;;;;;;5073605;28;20199;-64
2021/05/02 00:26:14;;;;;;;10.63;8.83;;;6.60;93.90;;;;;;5073292;28;20430;-64
2021/05/02 00:28:51;;;;;;;9.03;8.23;;;6.60;93.90;;;;;;5073074;28;20250;-65
2021/05/02 00:31:18;;;;;;;8.57;7.77;;;6.60;94.20;;;;;;5073139;28;20191;-63
2021/05/02 00:33:45;;;;;;;7.20;6.50;;;6.50;94.10;;;;;;5071243;28;20420;-65
2021/05/02 00:36:11;;;;;;;8.93;8.03;;;6.60;94.20;;;;;;5073128;28;20529;-65
2021/05/02 00:38:40;;;;;;;8.13;7.43;;;6.50;94.20;;;;;;5072677;28;20414;-63
2021/05/02 00:41:17;;;;;;;8.97;7.83;;;6.50;94.30;;;;;;5072812;28;20517;-64
2021/05/02 00:43:57;;;;;;;13.77;8.10;;;6.50;94.40;;;;;;5073151;28;20755;-65
2021/05/02 00:46:51;;;;;;;8.53;7.73;;;6.50;94.40;;;;;;5073096;28;20759;-64
2021/05/02 00:49:22;;;;;;;10.43;8.47;;;6.50;94.60;;;;;;5072128;28;20775;-64
2021/05/02 00:51:55;;;;;;;8.67;7.77;;;6.50;94.70;;;;;;5072961;28;20458;-64
2021/05/02 00:54:32;;;;;;;9.17;8.30;;;6.50;94.60;;;;;;5073056;28;20438;-64
2021/05/02 00:57:32;;;;;;;10.60;9.57;;;6.40;94.60;;;;;;5072866;28;20713;-64
2021/05/02 01:00:03;;;;;;;11.33;9.33;;;6.40;94.60;;;;;;5070974;28;20445;-64
2021/05/02 01:02:29;;;;;;;8.90;8.20;;;6.40;94.70;;;;;;5072468;28;20441;-64
2021/05/02 01:04:58;;;;;;;8.87;8.07;;;6.40;94.80;;;;;;5072753;28;20459;-65
2021/05/02 01:07:29;;;;;;;9.20;8.10;;;6.40;94.90;;;;;;5072654;28;20481;-64
2021/05/02 01:10:01;;;;;;;9.33;8.47;;;6.50;95.00;;;;;;5072044;28;20495;-64
2021/05/02 01:12:29;;;;;;;9.90;8.90;;;6.50;95.10;;;;;;5072522;28;20428;-65
2021/05/02 01:14:57;;;;;;;10.40;9.40;;;6.40;95.00;;;;;;5072610;28;20398;-64
2021/05/02 01:17:25;;;;;;;11.07;9.90;;;6.40;95.00;;;;;;5072253;28;20410;-65
2021/05/02 01:19:51;;;;;;;8.20;7.40;;;6.30;95.30;;;;;;5072097;28;20799;-64
2021/05/02 01:22:19;;;;;;;11.03;9.40;;;6.30;95.40;;;;;;5071990;28;20429;-63
2021/05/02 01:24:51;;;;;;;12.90;8.60;;;6.30;95.70;;;;;;5072171;28;20493;-65
2021/05/02 01:27:27;;;;;;;11.03;9.77;;;6.30;95.90;;;;;;5072269;28;20395;-65
2021/05/02 01:29:53;;;;;;;12.60;10.20;;;6.30;95.90;;;;;;5071987;28;20458;-64
2021/05/02 01:32:19;;;;;;;13.00;10.33;;;6.30;95.80;;;;;;5072173;28;20641;-65
2021/05/02 01:34:45;;;;;;;9.80;8.87;;;6.30;96.20;;;;;;5072235;28;20875;-64
2021/05/02 01:37:12;;;;;;;12.33;9.90;;;6.20;96.40;;;;;;5071976;28;20405;-64
2021/05/02 01:39:38;;;;;;;13.87;11.70;;;6.20;96.40;;;;;;5071662;28;20253;-64
2021/05/02 01:42:04;;;;;;;12.20;10.83;;;6.30;96.60;;;;;;5071822;28;20511;-64
2021/05/02 01:44:29;;;;;;;11.77;9.93;;;6.30;96.60;;;;;;5072170;28;20400;-64
2021/05/02 01:46:58;;;;;;;8.70;7.87;;;6.30;96.70;;;;;;5072015;28;20394;-65
2021/05/02 01:49:25;;;;;;;10.00;8.97;;;6.30;96.60;;;;;;5070947;28;20198;-63
2021/05/02 01:51:50;;;;;;;14.27;11.03;;;6.40;96.70;;;;;;5071734;28;20996;-64
2021/05/02 01:54:16;;;;;;;13.20;11.60;;;6.40;96.60;;;;;;5071836;28;20406;-65
2021/05/02 01:56:45;;;;;;;10.70;9.27;;;6.40;96.90;;;;;;5071973;28;20170;-65
2021/05/02 01:59:13;;;;;;;12.90;11.43;;;6.40;96.90;;;;;;5070009;28;20468;-64
2021/05/02 02:01:38;;;;;;;13.30;11.50;;;6.30;97.00;;;;;;5071800;28;20437;-64
2021/05/02 02:04:07;;;;;;;18.00;12.90;;;6.40;97.30;;;;;;5071668;28;20917;-64
2021/05/02 02:06:33;;;;;;;13.47;12.10;;;6.30;97.30;;;;;;5071963;28;20176;-64
2021/05/02 02:09:06;;;;;;;13.67;11.57;;;6.30;97.40;;;;;;5071318;28;20402;-64
2021/05/02 02:11:32;;;;;;;14.67;12.37;;;6.30;97.40;;;;;;5071778;28;20496;-64
2021/05/02 02:13:57;;;;;;;13.97;10.70;;;6.30;97.50;;;;;;5071642;28;20429;-64
2021/05/02 02:16:24;;;;;;;18.00;14.57;;;6.30;97.40;;;;;;5071747;28;20407;-64
2021/05/02 02:18:51;;;;;;;17.80;12.83;;;6.20;97.50;;;;;;5069618;28;20198;-64
2021/05/02 02:21:20;;;;;;;18.33;14.20;;;6.20;97.90;;;;;;5071643;28;20417;-64
2021/05/02 02:23:53;;;;;;;16.27;13.20;;;6.10;98.10;;;;;;5071712;28;20401;-64
2021/05/02 02:26:34;;;;;;;17.00;13.70;;;6.20;98.30;;;;;;5071617;28;20422;-64
2021/05/02 02:29:02;;;;;;;16.37;12.80;;;6.10;98.20;;;;;;5071207;28;20401;-64
2021/05/02 02:31:33;;;;;;;15.07;13.57;;;6.10;98.30;;;;;;5071124;28;20553;-63
2021/05/02 02:33:59;;;;;;;24.70;16.50;;;6.20;98.30;;;;;;5071494;28;20411;-62
2021/05/02 02:36:25;;;;;;;19.03;15.80;;;6.10;98.50;;;;;;5071471;28;20405;-62
2021/05/02 02:38:52;;;;;;;18.87;16.03;;;6.10;98.50;;;;;;5071138;28;20406;-64
2021/05/02 02:41:18;;;;;;;18.37;15.30;;;6.00;98.60;;;;;;5071365;28;20421;-64
2021/05/02 02:43:52;;;;;;;23.57;18.37;;;6.00;98.90;;;;;;5071329;28;20550;-63
2021/05/02 02:46:19;;;;;;;19.43;16.17;;;6.10;99.00;;;;;;5071657;28;20437;-63
2021/05/02 02:48:51;;;;;;;19.73;15.57;;;6.10;99.10;;;;;;5071103;28;20477;-63
2021/05/02 02:51:17;;;;;;;21.10;17.23;;;6.10;99.10;;;;;;5071140;28;20476;-63
2021/05/02 02:53:43;;;;;;;25.47;18.83;;;6.10;99.10;;;;;;5071371;28;20394;-63
2021/05/02 02:56:17;;;;;;;20.50;18.30;;;6.20;99.10;;;;;;5071197;28;20413;-63
2021/05/02 02:59:02;;;;;;;24.00;16.77;;;6.20;99.10;;;;;;5070961;28;20623;-64
2021/05/02 03:01:28;;;;;;;22.10;16.33;;;6.10;99.20;;;;;;5072000;28;20457;-63
2021/05/02 03:03:58;;;;;;;22.63;17.20;;;6.10;99.40;;;;;;5075071;28;20494;-63
2021/05/02 03:06:26;;;;;;;29.77;17.53;;;6.10;99.50;;;;;;5074984;28;20424;-63
2021/05/02 03:08:54;;;;;;;21.97;17.70;;;6.20;99.60;;;;;;5074393;28;20909;-63
2021/05/02 03:11:20;;;;;;;21.83;16.97;;;6.20;99.40;;;;;;5074847;28;20502;-63
2021/05/02 03:13:45;;;;;;;22.83;18.20;;;6.20;99.50;;;;;;5074770;28;20444;-63
2021/05/02 03:16:12;;;;;;;25.00;18.87;;;6.10;99.20;;;;;;5074680;28;20488;-63
2021/05/02 03:19:00;;;;;;;26.67;18.60;;;6.10;99.50;;;;;;5074403;28;20167;-63
2021/05/02 03:21:50;;;;;;;21.67;16.60;;;6.10;99.70;;;;;;5074479;28;20418;-63
2021/05/02 03:24:23;;;;;;;22.90;17.60;;;6.00;99.60;;;;;;5073496;28;20412;-63
2021/05/02 03:26:49;;;;;;;24.07;18.23;;;6.00;99.70;;;;;;5074562;28;20414;-62
2021/05/02 03:29:15;;;;;;;20.70;16.50;;;6.00;99.80;;;;;;5074035;28;20439;-63
2021/05/02 03:31:44;;;;;;;24.10;18.30;;;6.10;99.90;;;;;;5074191;28;20456;-63
2021/05/02 03:34:11;;;;;;;23.73;16.67;;;6.00;99.90;;;;;;5074489;28;20402;-63
2021/05/02 03:36:46;;;;;;;24.63;19.67;;;6.00;99.90;;;;;;5074405;28;20433;-63
2021/05/02 03:39:12;;;;;;;28.10;19.33;;;6.00;99.90;;;;;;5074006;28;20405;-62
2021/05/02 03:41:38;;;;;;;25.07;19.03;;;6.00;99.90;;;;;;5074189;28;20654;-63
2021/05/02 03:44:04;;;;;;;21.27;15.67;;;6.00;99.90;;;;;;5074232;28;20488;-62
2021/05/02 03:46:30;;;;;;;31.00;19.97;;;6.00;99.90;;;;;;5074017;28;20413;-63
2021/05/02 03:48:56;;;;;;;24.20;19.43;;;6.00;99.90;;;;;;5074027;28;20408;-63
2021/05/02 03:51:23;;;;;;;30.80;17.83;;;6.00;99.90;;;;;;5074129;28;20838;-63
2021/05/02 03:53:48;;;;;;;26.80;21.13;;;6.00;99.90;;;;;;5074196;28;20246;-64
2021/05/02 03:56:34;;;;;;;26.00;18.27;;;6.00;99.90;;;;;;5074103;28;20973;-63
2021/05/02 03:59:24;;;;;;;31.90;21.63;;;6.00;99.90;;;;;;5073512;28;20187;-64
2021/05/02 04:01:51;;;;;;;28.30;20.17;;;6.00;99.90;;;;;;5073395;28;20477;-63
2021/05/02 04:04:25;;;;;;;34.90;21.90;;;5.90;99.90;;;;;;5074027;28;20480;-63
2021/05/02 04:06:51;;;;;;;24.77;19.60;;;5.90;99.90;;;;;;5073877;28;20454;-63
2021/05/02 04:09:17;;;;;;;27.60;20.17;;;5.90;99.90;;;;;;5073400;28;20410;-64
2021/05/02 04:11:44;;;;;;;24.13;18.53;;;5.90;99.90;;;;;;5073366;28;20837;-63
2021/05/02 04:14:15;;;;;;;35.33;22.60;;;5.90;99.90;;;;;;5073664;28;20406;-62
2021/05/02 04:16:41;;;;;;;28.67;23.40;;;5.90;99.90;;;;;;5073590;28;20492;-63
2021/05/02 04:19:08;;;;;;;31.03;23.00;;;5.90;99.90;;;;;;5073321;28;20405;-63
2021/05/02 04:21:34;;;;;;;21.97;16.67;;;5.90;99.90;;;;;;5073437;28;20904;-63
2021/05/02 04:24:00;;;;;;;28.83;20.20;;;6.00;99.90;;;;;;5073497;28;20505;-63
2021/05/02 04:26:26;;;;;;;19.60;16.90;;;6.10;99.90;;;;;;5073422;28;20398;-63
2021/05/02 04:28:52;;;;;;;27.20;18.23;;;6.10;99.90;;;;;;5073098;28;20417;-63
2021/05/02 04:31:18;;;;;;;25.70;18.60;;;6.10;99.90;;;;;;5073267;28;20292;-63
2021/05/02 04:33:45;;;;;;;30.57;18.80;;;6.00;99.90;;;;;;5073424;28;20176;-64
2021/05/02 04:36:10;;;;;;;23.80;18.30;;;6.00;99.90;;;;;;5073180;28;20930;-63
2021/05/02 04:38:36;;;;;;;22.80;17.70;;;6.00;99.90;;;;;;5072771;28;20433;-64
2021/05/02 04:41:02;;;;;;;18.13;15.33;;;6.00;99.90;;;;;;5073021;28;20195;-63
2021/05/02 04:43:28;;;;;;;21.33;17.47;;;6.00;99.90;;;;;;5073102;28;20183;-64
2021/05/02 04:45:53;;;;;;;18.73;12.70;;;5.90;99.90;;;;;;5073080;28;20408;-63
2021/05/02 04:48:19;;;;;;;16.37;14.53;;;5.90;99.90;;;;;;5072717;28;20180;-63
2021/05/02 04:50:45;;;;;;;18.57;16.07;;;6.00;99.90;;;;;;5072801;28;20495;-63
2021/05/02 04:53:11;;;;;;;22.17;16.97;;;6.00;99.90;;;;;;5072931;28;20179;-63
2021/05/02 04:55:37;;;;;;;20.87;17.50;;;6.00;99.90;;;;;;5073603;28;20920;-63
2021/05/02 04:58:03;;;;;;;28.73;20.33;;;6.00;99.90;;;;;;5072587;28;20220;-63
2021/05/02 05:00:29;;;;;;;24.87;18.50;;;5.90;99.90;;;;;;5072624;28;20199;-64
2021/05/02 05:02:56;;;;;;;30.40;21.60;;;5.90;99.90;;;;;;5072691;28;20413;-63
2021/05/02 05:05:22;;;;;;;27.27;20.77;;;5.80;99.90;;;;;;5072628;28;20510;-64
2021/05/02 05:07:47;;;;;;;37.20;24.97;;;5.90;99.90;;;;;;5072512;28;20945;-64
2021/05/02 05:10:13;;;;;;;33.20;22.40;;;5.90;99.90;;;;;;5072159;28;20256;-63
2021/05/02 05:12:39;;;;;;;25.87;19.83;;;5.80;99.90;;;;;;5072613;28;20178;-62
2021/05/02 05:15:07;;;;;;;32.27;20.47;;;5.90;99.90;;;;;;5072588;28;20171;-63
2021/05/02 05:17:33;;;;;;;30.50;22.90;;;5.90;99.90;;;;;;5072435;28;20402;-63
2021/05/02 05:19:59;;;;;;;36.73;23.13;;;5.90;99.90;;;;;;5071865;28;20408;-63
2021/05/02 05:22:25;;;;;;;33.73;27.10;;;5.90;99.90;;;;;;5072295;28;20500;-63
2021/05/02 05:24:50;;;;;;;38.57;27.40;;;6.00;99.90;;;;;;5071625;28;20258;-63
2021/05/02 05:27:16;;;;;;;39.23;25.63;;;5.90;99.90;;;;;;5072433;28;20449;-63
2021/05/02 05:29:41;;;;;;;26.47;18.17;;;6.30;99.90;;;;;;5071925;28;20220;-63
2021/05/02 05:32:07;;;;;;;28.83;21.90;;;6.10;99.90;;;;;;5072025;28;20207;-63
2021/05/02 05:34:33;;;;;;;20.17;15.93;;;6.10;99.90;;;;;;5072145;28;20701;-63
2021/05/02 05:36:59;;;;;;;23.67;18.53;;;6.10;99.90;;;;;;5072151;28;20609;-63
2021/05/02 05:39:24;;;;;;;26.73;17.70;;;6.00;99.90;;;;;;5071694;28;20476;-64
2021/05/02 05:41:51;;;;;;;18.60;13.70;;;6.00;99.90;;;;;;5072018;28;20179;-64
2021/05/02 05:44:17;;;;;;;24.77;20.47;;;6.00;99.90;;;;;;5072114;28;20170;-64
2021/05/02 05:46:43;;;;;;;20.10;15.63;;;6.10;99.90;;;;;;5071986;28;20411;-64
2021/05/02 05:49:08;;;;;;;20.07;14.47;;;6.10;99.90;;;;;;5071533;28;20489;-63
2021/05/02 05:51:34;;;;;;;16.03;14.27;;;6.10;99.90;;;;;;5071760;28;20344;-63
2021/05/02 05:54:01;;;;;;;18.30;13.70;;;6.10;99.90;;;;;;5072000;28;20163;-63
2021/05/02 05:56:26;;;;;;;14.17;12.53;;;6.20;99.90;;;;;;5071856;28;20163;-63
2021/05/02 05:58:53;;;;;;;19.00;11.53;;;6.20;99.90;;;;;;5071453;28;20425;-64
2021/05/02 06:01:18;;;;;;;16.77;12.17;;;6.20;99.90;;;;;;5071847;28;20202;-64
2021/05/02 06:03:44;;;;;;;13.03;11.57;;;6.30;99.90;;;;;;5072161;28;20411;-63
2021/05/02 06:06:09;;;;;;;14.63;12.00;;;6.40;99.90;;;;;;5071832;28;20175;-64
2021/05/02 06:08:35;;;;;;;13.20;10.30;;;6.30;99.90;;;;;;5071743;28;20172;-63
2021/05/02 06:11:00;;;;;;;12.47;9.93;;;6.30;99.90;;;;;;5071634;28;20200;-64
2021/05/02 06:13:26;;;;;;;12.33;10.90;;;6.40;99.90;;;;;;5071701;28;20566;-63
2021/05/02 06:15:51;;;;;;;12.57;10.23;;;6.40;99.90;;;;;;5071759;28;20706;-64
2021/05/02 06:18:17;;;;;;;15.13;11.47;;;6.40;99.90;;;;;;5071145;28;20171;-63
2021/05/02 06:20:42;;;;;;;13.37;9.67;;;6.50;99.90;;;;;;5071632;28;20291;-63
2021/05/02 06:23:08;;;;;;;12.23;8.83;;;6.60;99.90;;;;;;5071639;28;20171;-64
2021/05/02 06:25:34;;;;;;;13.10;9.53;;;6.70;99.90;;;;;;5071652;28;20177;-63
2021/05/02 06:28:00;;;;;;;9.97;8.97;;;6.80;99.90;;;;;;5071425;28;20171;-63
2021/05/02 06:30:26;;;;;;;11.87;9.33;;;6.90;99.90;;;;;;5071281;28;20290;-64
2021/05/02 06:32:52;;;;;;;12.07;9.13;;;7.10;99.90;;;;;;5071360;28;20481;-63
2021/05/02 06:35:17;;;;;;;13.13;10.30;;;7.30;99.90;;;;;;5072245;28;20175;-63
2021/05/02 06:37:43;;;;;;;12.30;9.83;;;7.30;99.90;;;;;;5075416;28;20244;-63
2021/05/02 06:40:09;;;;;;;13.00;8.87;;;7.50;99.90;;;;;;5075288;28;20177;-63
2021/05/02 06:42:35;;;;;;;10.80;8.77;;;7.60;99.80;;;;;;5075333;28;20180;-62
2021/05/02 06:45:01;;;;;;;8.70;7.80;;;7.60;99.90;;;;;;5075431;28;20795;-64
2021/05/02 06:47:26;;;;;;;8.60;7.57;;;7.60;99.40;;;;;;5075235;28;20250;-63
2021/05/02 06:49:52;;;;;;;8.17;7.33;;;7.70;99.10;;;;;;5075017;28;20172;-64
2021/05/02 06:52:18;;;;;;;8.43;7.63;;;7.80;98.80;;;;;;5075280;28;20220;-63
2021/05/02 06:54:44;;;;;;;7.03;6.47;;;7.80;97.80;;;;;;5075159;28;20642;-64
2021/05/02 06:57:10;;;;;;;11.70;8.03;;;7.80;97.60;;;;;;5075230;28;20469;-63
2021/05/02 06:59:35;;;;;;;11.50;7.27;;;7.90;97.70;;;;;;5074667;28;20419;-63
2021/05/02 07:02:01;;;;;;;8.07;5.80;;;7.90;97.30;;;;;;5074866;28;21022;-64
2021/05/02 07:04:31;;;;;;;8.90;7.83;;;7.90;97.10;;;;;;5074956;28;20661;-64
2021/05/02 07:06:57;;;;;;;11.83;8.70;;;8.00;98.50;;;;;;5075033;28;20651;-64
2021/05/02 07:09:22;;;;;;;8.97;7.40;;;8.00;98.70;;;;;;5074580;28;20412;-63
2021/05/02 07:11:48;;;;;;;11.47;8.37;;;7.90;98.00;;;;;;5074784;28;20274;-63
2021/05/02 07:14:14;;;;;;;9.37;7.53;;;7.90;98.60;;;;;;5074756;28;20576;-63
2021/05/02 07:16:39;;;;;;;7.90;7.20;;;8.00;98.40;;;;;;5075251;28;20170;-64
2021/05/02 07:19:05;;;;;;;7.03;6.33;;;8.10;97.80;;;;;;5074328;28;20165;-63
2021/05/02 07:21:30;;;;;;;9.03;7.73;;;8.30;97.80;;;;;;5074871;28;20202;-63
2021/05/02 07:23:56;;;;;;;12.73;6.20;;;8.50;97.40;;;;;;5074565;28;20773;-64
2021/05/02 07:26:22;;;;;;;8.47;7.00;;;8.60;96.80;;;;;;5075071;28;20264;-64
2021/05/02 07:28:49;;;;;;;6.70;6.07;;;8.60;96.30;;;;;;5074156;28;20187;-63
2021/05/02 07:31:15;;;;;;;6.50;5.80;;;8.60;95.10;;;;;;5074269;28;20461;-63
2021/05/02 07:33:41;;;;;;;5.60;5.10;;;8.70;95.60;;;;;;5074422;28;20401;-64
2021/05/02 07:36:08;;;;;;;5.00;4.60;;;8.70;95.10;;;;;;5074514;28;20487;-63
2021/05/02 07:38:35;;;;;;;8.30;5.60;;;8.80;94.90;;;;;;5073946;28;20534;-64
2021/05/02 07:41:02;;;;;;;5.90;4.10;;;8.80;95.10;;;;;;5074344;28;20425;-63
2021/05/02 07:43:27;;;;;;;4.20;3.47;;;8.90;92.70;;;;;;5074327;28;20413;-63
2021/05/02 07:45:53;;;;;;;3.57;3.30;;;9.10;92.80;;;;;;5074223;28;20411;-62
2021/05/02 07:48:19;;;;;;;9.70;4.57;;;9.10;92.40;;;;;;5072932;28;20171;-63
2021/05/02 07:50:44;;;;;;;8.10;3.87;;;9.00;92.10;;;;;;5074050;28;20234;-63
2021/05/02 07:53:10;;;;;;;6.30;5.70;;;8.90;92.40;;;;;;5074129;28;20170;-63
2021/05/02 07:55:36;;;;;;;6.13;5.27;;;8.80;93.10;;;;;;5074177;28;20171;-64
2021/05/02 07:58:02;;;;;;;5.73;5.23;;;8.60;92.40;;;;;;5073763;28;20250;-63
2021/05/02 08:00:28;;;;;;;6.67;4.97;;;8.50;93.10;;;;;;5073626;28;20198;-63
2021/05/02 08:02:54;;;;;;;9.47;5.37;;;8.50;93.90;;;;;;5073875;28;20411;-63
2021/05/02 08:05:20;;;;;;;7.03;6.20;;;8.80;93.70;;;;;;5074030;28;20169;-63
2021/05/02 08:07:46;;;;;;;9.23;6.70;;;9.20;94.10;;;;;;5073813;28;20174;-63
2021/05/02 08:10:12;;;;;;;4.60;4.20;;;9.50;92.70;;;;;;5073318;28;20957;-64
2021/05/02 08:12:38;;;;;;;4.07;3.67;;;9.60;89.70;;;;;;5074336;28;20167;-63
2021/05/02 08:15:06;;;;;;;11.13;8.30;;;9.50;90.80;;;;;;5073642;28;20409;-63
2021/05/02 08:17:31;;;;;;;7.23;6.33;;;9.60;90.90;;;;;;5073772;28;20406;-63
2021/05/02 08:19:57;;;;;;;16.70;10.23;;;9.50;90.60;;;;;;5073330;28;20401;-63
2021/05/02 08:22:22;;;;;;;6.30;5.57;;;9.50;90.30;;;;;;5073616;28;20666;-63
2021/05/02 08:24:48;;;;;;;13.50;5.53;;;9.50;90.30;;;;;;5073561;28;20167;-63
2021/05/02 08:27:14;;;;;;;5.33;4.20;;;9.50;90.80;;;;;;5073589;28;20168;-64
2021/05/02 08:29:39;;;;;;;17.13;9.17;;;9.30;90.30;;;;;;5072834;28;20534;-64
2021/05/02 08:32:05;;;;;;;5.23;4.73;;;9.10;90.00;;;;;;5073311;28;20198;-63
2021/05/02 08:34:30;;;;;;;6.20;5.60;;;9.00;90.00;;;;;;5073391;28;20187;-62
2021/05/02 08:36:56;;;;;;;4.10;3.70;;;9.20;90.10;;;;;;5073319;28;20171;-63
2021/05/02 08:39:22;;;;;;;7.50;5.60;;;9.50;90.30;;;;;;5072879;28;20175;-63
2021/05/02 08:41:48;;;;;;;7.83;7.13;;;9.70;90.20;;;;;;5073195;28;20714;-63
2021/05/02 08:44:17;;;;;;;5.70;4.10;;;9.80;86.40;;;;;;5073022;28;20194;-63
2021/05/02 08:46:43;;;;;;;5.40;4.37;;;9.70;84.30;;;;;;5073037;28;20167;-63
2021/05/02 08:49:09;;;;;;;6.93;4.10;;;9.80;82.10;;;;;;5072828;28;20941;-63
2021/05/02 08:51:34;;;;;;;7.47;4.50;;;9.70;83.20;;;;;;5072882;28;20452;-63
2021/05/02 08:54:00;;;;;;;5.83;3.67;;;9.60;82.20;;;;;;5073016;28;20171;-63
2021/05/02 08:56:26;;;;;;;5.47;3.83;;;9.60;83.40;;;;;;5072922;28;20166;-63
2021/05/02 08:58:51;;;;;;;7.03;4.97;;;9.60;81.60;;;;;;5072147;28;20556;-63
2021/05/02 09:01:27;;;;;;;5.53;4.67;;;9.70;82.20;;;;;;5072838;28;20203;-64
2021/05/02 09:03:53;;;;;;;4.10;3.57;;;9.70;80.70;;;;;;5072892;28;20183;-63
2021/05/02 09:06:27;;;;;;;6.10;4.43;;;10.10;82.00;;;;;;5072762;28;20443;-64
2021/05/02 09:08:57;;;;;;;4.20;3.80;;;10.60;79.50;;;;;;5071738;28;20531;-64
2021/05/02 09:11:39;;;;;;;5.13;3.00;;;11.20;77.30;;;;;;5072073;28;20480;-64
2021/05/02 09:14:31;;;;;;;3.53;3.07;;;11.70;78.10;;;;;;5072739;28;20407;-63
2021/05/02 09:17:01;;;;;;;3.30;3.00;;;11.70;73.20;;;;;;5072576;28;20401;-63
2021/05/02 09:19:32;;;;;;;2.70;2.50;;;11.50;71.50;;;;;;5071984;28;20406;-63
2021/05/02 09:22:12;;;;;;;3.00;2.80;;;11.10;68.40;;;;;;5072586;28;20432;-63
2021/05/02 09:24:38;;;;;;;6.20;5.60;;;11.10;70.00;;;;;;5072367;28;20424;-64
2021/05/02 09:27:14;;;;;;;3.37;2.93;;;11.40;72.00;;;;;;5072381;28;20409;-64
2021/05/02 09:29:41;;;;;;;6.13;2.30;;;11.70;65.60;;;;;;5071916;28;20554;-64
2021/05/02 09:32:08;;;;;;;3.87;3.53;;;12.20;69.40;;;;;;5072126;28;20854;-63
2021/05/02 09:34:34;;;;;;;2.57;2.37;;;12.50;64.80;;;;;;5072186;28;20489;-64
2021/05/02 09:37:05;;;;;;;3.00;2.70;;;12.40;61.50;;;;;;5072154;28;20419;-63
2021/05/02 09:39:49;;;;;;;2.93;2.73;;;12.10;60.80;;;;;;5071809;28;20521;-64
2021/05/02 09:42:18;;;;;;;7.90;5.10;;;11.70;63.60;;;;;;5072131;28;20806;-63
2021/05/02 09:44:46;;;;;;;5.67;5.27;;;11.50;68.30;;;;;;5071996;28;20779;-63
2021/05/02 09:47:34;;;;;;;4.67;4.17;;;11.30;67.40;;;;;;5072137;28;20438;-63
2021/05/02 09:50:18;;;;;;;3.70;3.40;;;11.30;67.40;;;;;;5071405;28;20410;-64
2021/05/02 09:52:52;;;;;;;3.00;2.80;;;11.20;68.40;;;;;;5071957;28;20410;-63
2021/05/02 09:55:23;;;;;;;3.57;3.20;;;11.40;69.20;;;;;;5071949;28;20410;-64
2021/05/02 09:58:01;;;;;;;4.73;3.23;;;11.30;68.80;;;;;;5071848;28;20412;-64
2021/05/02 10:00:32;;;;;;;4.20;2.90;;;11.60;70.80;;;;;;5071765;28;20431;-64
2021/05/02 10:02:58;;;;;;;4.00;3.70;;;11.60;69.50;;;;;;5071838;28;20762;-64
2021/05/02 10:05:24;;;;;;;3.57;3.33;;;11.80;69.80;;;;;;5071729;28;20400;-63
2021/05/02 10:07:51;;;;;;;3.07;2.87;;;11.70;67.60;;;;;;5071875;28;20405;-63
2021/05/02 10:10:17;;;;;;;4.03;3.73;;;11.70;66.40;;;;;;5070918;28;20455;-64
2021/05/02 10:12:54;;;;;;;3.93;3.13;;;11.60;66.50;;;;;;5071720;28;20420;-64
2021/05/02 10:15:21;;;;;;;3.63;3.33;;;11.40;64.70;;;;;;5071817;28;20504;-64
2021/05/02 10:17:51;;;;;;;3.43;3.13;;;11.20;64.30;;;;;;5071310;28;20412;-63
2021/05/02 10:20:21;;;;;;;6.13;5.70;;;11.10;65.80;;;;;;5071255;28;20426;-64
2021/05/02 10:22:48;;;;;;;6.60;4.03;;;11.00;67.10;;;;;;5071683;28;20782;-64
2021/05/02 10:25:15;;;;;;;5.67;5.17;;;11.10;67.90;;;;;;5071842;28;20442;-64
2021/05/02 10:27:49;;;;;;;4.37;3.73;;;11.20;69.30;;;;;;5071516;28;20407;-64
2021/05/02 10:30:28;;;;;;;3.87;3.00;;;11.30;69.70;;;;;;5071290;28;20874;-65
2021/05/02 10:33:01;;;;;;;7.87;4.07;;;11.60;71.50;;;;;;5071567;28;20859;-64
2021/05/02 10:35:52;;;;;;;3.37;3.10;;;11.70;68.50;;;;;;5071568;28;20399;-64
2021/05/02 10:38:21;;;;;;;3.90;3.60;;;11.90;67.00;;;;;;5071100;28;20830;-64
2021/05/02 10:40:48;;;;;;;2.93;2.73;;;11.90;66.80;;;;;;5071339;28;20464;-64
2021/05/02 10:43:28;;;;;;;4.53;4.13;;;12.00;68.00;;;;;;5071397;28;20439;-64
2021/05/02 10:45:55;;;;;;;5.90;5.30;;;12.00;66.50;;;;;;5071593;28;20497;-63
2021/05/02 10:48:23;;;;;;;4.90;3.80;;;12.10;67.70;;;;;;5070947;28;20775;-64
2021/05/02 10:50:51;;;;;;;5.87;4.83;;;12.20;65.70;;;;;;5071248;28;20979;-65
2021/05/02 10:53:20;;;;;;;5.77;3.70;;;12.30;65.90;;;;;;5071760;28;20400;-64
2021/05/02 10:55:48;;;;;;;3.30;3.10;;;12.50;66.70;;;;;;5071380;28;20459;-63
2021/05/02 10:58:23;;;;;;;3.77;3.20;;;12.60;64.40;;;;;;5070775;28;20401;-65
2021/05/02 11:00:58;;;;;;;3.10;2.80;;;12.80;65.80;;;;;;5071166;28;20455;-65
2021/05/02 11:03:51;;;;;;;3.87;3.47;;;13.80;68.40;;;;;;5071295;28;20779;-64
2021/05/02 11:06:39;;;;;;;3.47;3.17;;;14.40;67.30;;;;;;5070971;28;20432;-65
2021/05/02 11:09:11;;;;;;;3.50;3.30;;;15.10;63.50;;;;;;5070861;28;20805;-65
2021/05/02 11:11:41;;;;;;;8.00;3.53;;;14.90;59.20;;;;;;5071204;28;20473;-64
2021/05/02 11:14:17;;;;;;;6.00;3.13;;;14.70;59.30;;;;;;5071151;28;20447;-64
2021/05/02 11:16:45;;;;;;;5.23;3.90;;;14.60;58.80;;;;;;5071141;28;20817;-65
2021/05/02 11:19:32;;;;;;;3.53;3.23;;;14.50;56.60;;;;;;5070570;28;20404;-63
2021/05/02 11:22:01;;;;;;;2.40;2.30;;;14.40;57.50;;;;;;5071201;28;20425;-64
2021/05/02 11:24:39;;;;;;;3.00;2.80;;;14.10;56.00;;;;;;5074850;28;20405;-64
2021/05/02 11:27:24;;;;;;;3.27;2.93;;;13.90;57.20;;;;;;5075501;28;20415;-64
2021/05/02 11:32:27;;;;;;;3.70;3.20;;;13.40;58.90;;;;;;5074432;28;21038;-64
2021/05/02 11:35:11;;;;;;;2.67;2.57;;;13.20;58.60;;;;;;5074431;28;20207;-65
2021/05/02 11:37:51;;;;;;;2.70;2.50;;;13.10;58.30;;;;;;5074619;28;20409;-63
2021/05/02 11:40:32;;;;;;;2.57;2.37;;;13.10;57.20;;;;;;5074468;28;20425;-64
2021/05/02 11:43:18;;;;;;;2.40;2.20;;;13.10;58.30;;;;;;5074378;28;20915;-64
2021/05/02 11:46:16;;;;;;;2.43;2.33;;;13.10;57.60;;;;;;5074300;28;20389;-64
2021/05/02 11:48:43;;;;;;;3.50;3.20;;;13.20;56.90;;;;;;5073784;28;20414;-64
2021/05/02 11:51:19;;;;;;;3.00;2.70;;;13.50;56.40;;;;;;5074095;28;20477;-64
2021/05/02 11:53:55;;;;;;;3.40;3.10;;;13.80;56.00;;;;;;5074059;28;20404;-64
2021/05/02 11:56:30;;;;;;;7.00;3.57;;;14.40;57.30;;;;;;5074262;28;20408;-64
2021/05/02 11:59:07;;;;;;;4.23;3.93;;;14.70;55.00;;;;;;5073575;28;20508;-65
2021/05/02 12:01:34;;;;;;;3.10;2.80;;;15.10;55.00;;;;;;5072826;28;20474;-64
2021/05/02 12:04:07;;;;;;;3.97;3.23;;;15.30;54.80;;;;;;5073755;28;20425;-64
2021/05/02 12:06:35;;;;;;;2.97;2.77;;;15.10;53.90;;;;;;5073745;28;20458;-64
2021/05/02 12:09:09;;;;;;;5.00;4.50;;;15.20;55.40;;;;;;5073158;28;20484;-64
2021/05/02 12:11:35;;;;;;;4.17;3.80;;;15.30;55.40;;;;;;5073698;28;20496;-64
2021/05/02 12:14:00;;;;;;;3.30;3.10;;;15.30;55.80;;;;;;5073631;28;20440;-63
2021/05/02 12:16:30;;;;;;;6.63;6.03;;;15.60;54.90;;;;;;5073566;28;20170;-64
2021/05/02 12:19:03;;;;;;;8.10;7.40;;;15.60;53.90;;;;;;5073269;28;20202;-64
2021/05/02 12:21:37;;;;;;;5.50;5.00;;;15.60;53.40;;;;;;5073605;28;20421;-64
2021/05/02 12:24:10;;;;;;;6.60;6.00;;;15.60;53.20;;;;;;5073560;28;20775;-64
2021/05/02 12:27:10;;;;;;;6.57;6.03;;;15.40;53.90;;;;;;5073558;28;20511;-64
2021/05/02 12:29:42;;;;;;;6.60;6.00;;;15.20;51.90;;;;;;5072580;28;20422;-64
2021/05/02 12:32:10;;;;;;;6.30;5.80;;;14.90;52.80;;;;;;5073228;28;20460;-64
2021/05/02 12:34:49;;;;;;;5.37;4.97;;;14.70;53.00;;;;;;5073115;28;20783;-64
2021/05/02 12:37:17;;;;;;;5.60;5.10;;;14.50;52.70;;;;;;5073354;28;20397;-64
2021/05/02 12:39:45;;;;;;;6.13;5.50;;;14.20;52.80;;;;;;5072678;28;20416;-64
2021/05/02 12:42:10;;;;;;;4.63;3.70;;;14.00;54.10;;;;;;5073090;28;20432;-64
2021/05/02 12:44:38;;;;;;;3.60;3.33;;;13.80;53.40;;;;;;5073121;28;20401;-63
2021/05/02 12:47:15;;;;;;;4.60;4.20;;;13.80;54.60;;;;;;5073096;28;20174;-63
2021/05/02 12:50:10;;;;;;;9.13;7.10;;;13.80;54.30;;;;;;5072577;28;20415;-64
2021/05/02 12:52:38;;;;;;;7.00;6.30;;;13.50;54.50;;;;;;5072788;28;20436;-64
2021/05/02 12:55:19;;;;;;;7.40;6.70;;;13.40;54.70;;;;;;5072825;28;20413;-64
2021/05/02 12:57:59;;;;;;;6.30;4.70;;;13.00;55.70;;;;;;5072770;28;20401;-63
2021/05/02 13:00:52;;;;;;;5.03;4.60;;;13.00;57.20;;;;;;5072381;28;20429;-64